Time;durP1;ratioP1;P1;durP2;ratioP2;P2;SDS_P1;SDS_P2;PMS_P1;PMS_P2;Temp;Humidity;BMP_temperature;BMP_pressure;BME280_temperature;BME280_humidity;BME280_pressure;Samples;Min_cycle;Max_cycle;Signal;HPM_P1;HPM_P2
2020/12/25 00:01:58;;;;;;;4.10;3.70;;;;;;;;;;5063996;28;20423;-73
2020/12/25 00:04:24;;;;;;;4.53;3.47;;;;;;;;;;5060550;28;20463;-73
2020/12/25 00:06:49;;;;;;;4.85;3.85;;;;;;;;;;5062565;28;20459;-75
2020/12/25 00:09:15;;;;;;;5.25;4.05;;;4.00;99.90;;;;;;5068106;28;20376;-74
2020/12/25 00:11:41;;;;;;;6.28;3.67;;;4.00;99.90;;;;;;5068707;28;20387;-74
2020/12/25 00:14:06;;;;;;;5.13;3.92;;;;;;;;;;5062218;28;20464;-73
2020/12/25 00:16:33;;;;;;;4.78;3.83;;;;;;;;;;5066441;28;20378;-74
2020/12/25 00:18:59;;;;;;;5.10;4.13;;;;;;;;;;5064551;28;20385;-74
2020/12/25 00:21:25;;;;;;;4.78;4.03;;;4.10;99.90;;;;;;5064681;28;20384;-74
2020/12/25 00:23:50;;;;;;;5.93;4.10;;;4.00;99.90;;;;;;5063460;28;20392;-73
2020/12/25 00:26:23;;;;;;;5.18;4.15;;;4.10;99.90;;;;;;5064655;28;20512;-74
2020/12/25 00:28:49;;;;;;;5.28;4.50;;;4.10;99.90;;;;;;5056546;28;20405;-74
2020/12/25 00:31:28;;;;;;;6.10;4.33;;;;;;;;;;5064582;28;20861;-74
2020/12/25 00:33:55;;;;;;;6.97;4.25;;;;;;;;;;5061106;28;20405;-75
2020/12/25 00:36:24;;;;;;;5.55;4.50;;;;;;;;;;5058841;28;20863;-74
2020/12/25 00:38:50;;;;;;;5.60;5.00;;;;;;;;;;5062272;28;20373;-73
2020/12/25 00:41:16;;;;;;;6.07;4.78;;;;;;;;;;5059286;28;20389;-74
2020/12/25 00:43:42;;;;;;;6.43;5.05;;;;;;;;;;5060862;28;21099;-75
2020/12/25 00:46:14;;;;;;;5.65;4.80;;;4.00;99.90;;;;;;5067858;28;20413;-73
2020/12/25 00:48:41;;;;;;;6.43;5.18;;;;;;;;;;5057417;28;20472;-74
2020/12/25 00:51:17;;;;;;;6.90;4.97;;;4.10;99.90;;;;;;5066679;28;20404;-73
2020/12/25 00:53:43;;;;;;;6.72;5.15;;;;;;;;;;5060699;28;20417;-73
2020/12/25 00:56:10;;;;;;;5.43;4.80;;;4.30;99.90;;;;;;5065153;28;20385;-73
2020/12/25 00:58:36;;;;;;;6.95;5.40;;;4.00;99.90;;;;;;5060144;28;20419;-73
2020/12/25 01:01:02;;;;;;;6.82;5.40;;;4.10;99.90;;;;;;5064791;28;20417;-74
2020/12/25 01:03:28;;;;;;;9.02;5.20;;;4.10;99.90;;;;;;5065220;28;20394;-73
2020/12/25 01:05:53;;;;;;;6.60;5.40;;;4.10;99.90;;;;;;5061939;28;20475;-72
2020/12/25 01:08:19;;;;;;;7.50;5.50;;;;;;;;;;5062551;28;20454;-72
2020/12/25 01:10:45;;;;;;;7.90;5.50;;;;;;;;;;5062868;28;20453;-74
2020/12/25 01:13:11;;;;;;;6.60;5.60;;;;;;;;;;5063486;28;20407;-74
2020/12/25 01:15:37;;;;;;;7.63;5.30;;;;;;;;;;5062113;28;20391;-74
2020/12/25 01:18:03;;;;;;;6.75;5.00;;;;;;;;;;5063230;28;20471;-74
2020/12/25 01:20:29;;;;;;;8.25;5.55;;;4.20;99.90;;;;;;5064984;28;20415;-74
2020/12/25 01:22:54;;;;;;;7.43;5.40;;;4.20;99.90;;;;;;5061895;28;20395;-74
2020/12/25 01:25:21;;;;;;;7.50;5.20;;;;;;;;;;5064933;28;20447;-74
2020/12/25 01:27:47;;;;;;;7.32;5.10;;;;;;;;;;5060696;28;20410;-75
2020/12/25 01:30:13;;;;;;;6.43;5.27;;;;;;;;;;5056662;28;20468;-75
2020/12/25 01:32:38;;;;;;;8.05;5.40;;;4.10;99.90;;;;;;5051463;28;20377;-75
2020/12/25 01:35:04;;;;;;;6.97;5.55;;;4.10;99.90;;;;;;5051461;28;20413;-74
2020/12/25 01:37:31;;;;;;;9.10;5.75;;;;;;;;;;5051499;28;20485;-75
2020/12/25 01:39:56;;;;;;;7.32;5.43;;;;;;;;;;5066568;28;20731;-74
2020/12/25 01:42:22;;;;;;;7.80;5.67;;;;;;;;;;5057848;28;20386;-74
2020/12/25 01:44:48;;;;;;;8.23;5.28;;;;;;;;;;5051423;28;20388;-75
2020/12/25 01:47:16;;;;;;;7.15;5.63;;;;;;;;;;5051394;28;20385;-75
2020/12/25 01:49:43;;;;;;;8.38;5.80;;;4.00;99.90;;;;;;5051393;28;20429;-75
2020/12/25 01:52:09;;;;;;;7.05;5.47;;;;;;;;;;5051049;28;20419;-74
2020/12/25 01:54:35;;;;;;;6.85;5.70;;;3.80;99.90;;;;;;5050864;28;20432;-75
2020/12/25 01:57:01;;;;;;;6.10;5.40;;;3.90;99.90;;;;;;5051152;28;20435;-74
2020/12/25 01:59:27;;;;;;;8.00;5.65;;;;;;;;;;5051118;28;20381;-75
2020/12/25 02:01:53;;;;;;;6.50;5.60;;;3.70;99.90;;;;;;5051152;28;20377;-74
2020/12/25 02:04:19;;;;;;;8.60;5.82;;;;;;;;;;5050872;28;20823;-75
2020/12/25 02:06:45;;;;;;;8.45;6.13;;;;;;;;;;5060276;28;20498;-74
2020/12/25 02:09:10;;;;;;;7.20;5.53;;;3.70;99.90;;;;;;5055085;28;20417;-74
2020/12/25 02:11:37;;;;;;;8.87;5.77;;;;;;;;;;5050944;28;20393;-72
2020/12/25 02:14:03;;;;;;;8.43;5.70;;;;;;;;;;5050575;28;20413;-72
2020/12/25 02:16:29;;;;;;;7.63;5.43;;;;;;;;;;5050830;28;20374;-71
2020/12/25 02:18:55;;;;;;;8.43;6.10;;;;;;;;;;5050853;28;20388;-71
2020/12/25 02:21:21;;;;;;;9.40;5.43;;;;;;;;;;5050889;28;20494;-73
2020/12/25 02:23:47;;;;;;;9.00;5.75;;;;;;;;;;5050428;28;20439;-73
2020/12/25 02:26:12;;;;;;;8.47;5.60;;;3.70;99.90;;;;;;5050617;28;20393;-73
2020/12/25 02:28:41;;;;;;;9.30;6.00;;;;;;;;;;5050791;28;20397;-73
2020/12/25 02:31:06;;;;;;;8.55;5.20;;;;;;;;;;5050679;28;20473;-74
2020/12/25 02:33:32;;;;;;;7.30;5.30;;;3.90;99.90;;;;;;5050277;28;20492;-73
2020/12/25 02:35:58;;;;;;;8.80;5.20;;;3.80;99.90;;;;;;5050514;28;20396;-73
2020/12/25 02:38:24;;;;;;;8.53;4.87;;;;;;;;;;5050385;28;20389;-74
2020/12/25 02:40:50;;;;;;;7.80;5.00;;;;;;;;;;5050510;28;20384;-74
2020/12/25 02:43:15;;;;;;;8.23;5.57;;;;;;;;;;5050337;28;20860;-74
2020/12/25 02:45:41;;;;;;;8.57;5.10;;;;;;;;;;5050527;28;20937;-74
2020/12/25 02:48:07;;;;;;;7.95;4.90;;;;;;;;;;5050400;28;20464;-75
2020/12/25 02:50:34;;;;;;;8.52;5.28;;;;;;;;;;5050379;28;20396;-75
2020/12/25 02:53:00;;;;;;;6.75;5.03;;;;;;;;;;5050067;28;20382;-73
2020/12/25 02:55:26;;;;;;;7.35;5.30;;;3.50;99.90;;;;;;5050246;28;20518;-72
2020/12/25 02:57:52;;;;;;;8.77;4.95;;;;;;;;;;5050184;28;20386;-74
2020/12/25 03:00:18;;;;;;;9.75;5.47;;;;;;;;;;5059747;28;20383;-74
2020/12/25 03:02:44;;;;;;;10.02;4.93;;;;;;;;;;5052788;28;20468;-73
2020/12/25 03:05:10;;;;;;;7.38;5.15;;;;;;;;;;5051646;28;20524;-73
2020/12/25 03:07:35;;;;;;;7.13;5.03;;;3.80;99.90;;;;;;5054254;28;20385;-75
2020/12/25 03:10:01;;;;;;;7.03;5.00;;;3.70;99.90;;;;;;5054379;28;20381;-73
2020/12/25 03:12:27;;;;;;;7.70;5.18;;;;;;;;;;5069785;28;20389;-73
2020/12/25 03:14:53;;;;;;;8.48;4.80;;;;;;;;;;5074115;28;20415;-73
2020/12/25 03:17:19;;;;;;;9.52;5.57;;;;;;;;;;5074205;28;20429;-73
2020/12/25 03:19:44;;;;;;;8.40;4.90;;;;;;;;;;5074200;28;20489;-73
2020/12/25 03:22:10;;;;;;;9.38;5.10;;;;;;;;;;5073921;28;20728;-75
2020/12/25 03:24:37;;;;;;;7.33;5.00;;;;;;;;;;5074101;28;20535;-76
2020/12/25 03:27:03;;;;;;;9.05;4.97;;;;;;;;;;5072714;28;20384;-76
2020/12/25 03:29:28;;;;;;;8.50;4.95;;;4.00;99.90;;;;;;5073982;28;20968;-74
2020/12/25 03:31:54;;;;;;;7.90;5.10;;;3.60;99.90;;;;;;5058476;28;20460;-74
2020/12/25 03:34:19;;;;;;;11.60;5.20;;;3.50;99.90;;;;;;5053696;28;20436;-72
2020/12/25 03:36:45;;;;;;;7.93;5.17;;;;;;;;;;5053652;28;20397;-73
2020/12/25 03:39:11;;;;;;;7.88;5.82;;;3.80;99.90;;;;;;5053849;28;20381;-73
2020/12/25 03:41:37;;;;;;;7.90;5.25;;;3.80;99.90;;;;;;5053711;28;20377;-74
2020/12/25 03:44:03;;;;;;;8.40;5.57;;;3.90;99.90;;;;;;5053940;28;20394;-74
2020/12/25 03:46:37;;;;;;;8.43;5.77;;;3.70;99.90;;;;;;5053583;28;20381;-74
2020/12/25 03:49:05;;;;;;;9.02;5.53;;;3.90;99.90;;;;;;5063915;28;20913;-74
2020/12/25 03:51:31;;;;;;;9.40;5.82;;;;;;;;;;5056643;28;20389;-74
2020/12/25 03:53:57;;;;;;;9.32;5.72;;;;;;;;;;5053307;28;20530;-74
2020/12/25 03:56:23;;;;;;;8.73;5.70;;;;;;;;;;5053738;28;20382;-73
2020/12/25 03:58:49;;;;;;;10.23;6.20;;;;;;;;;;5053618;28;20382;-73
2020/12/25 04:01:15;;;;;;;8.57;6.38;;;;;;;;;;5053534;28;20376;-74
2020/12/25 04:03:40;;;;;;;12.75;6.90;;;3.70;99.90;;;;;;5053262;28;20385;-73
2020/12/25 04:06:06;;;;;;;10.80;6.53;;;;;;;;;;5053240;28;20385;-73
2020/12/25 04:08:32;;;;;;;12.25;6.88;;;3.70;99.90;;;;;;5053296;28;20447;-73
2020/12/25 04:10:57;;;;;;;11.40;6.63;;;3.80;99.90;;;;;;5053257;28;20389;-73
2020/12/25 04:13:23;;;;;;;10.77;7.20;;;3.70;99.90;;;;;;5053028;28;20420;-74
2020/12/25 04:15:49;;;;;;;13.33;7.63;;;2.80;99.90;;;;;;5052884;28;20431;-74
2020/12/25 04:18:14;;;;;;;11.83;7.63;;;3.70;99.90;;;;;;5053161;28;20456;-73
2020/12/25 04:20:40;;;;;;;12.63;7.60;;;;;;;;;;5052951;28;20378;-74
2020/12/25 04:23:07;;;;;;;13.25;8.05;;;;;;;;;;5052936;28;20427;-74
2020/12/25 04:25:32;;;;;;;12.07;7.70;;;3.70;99.90;;;;;;5052967;28;20445;-74
2020/12/25 04:27:58;;;;;;;12.67;7.80;;;3.70;99.90;;;;;;5052963;28;20868;-74
2020/12/25 04:30:24;;;;;;;12.73;8.33;;;3.70;99.90;;;;;;5069075;28;20375;-74
2020/12/25 04:32:49;;;;;;;13.13;8.40;;;3.50;99.90;;;;;;5072728;28;20387;-74
2020/12/25 04:35:15;;;;;;;13.20;8.48;;;3.80;99.90;;;;;;5068928;28;20404;-74
2020/12/25 04:37:41;;;;;;;14.73;8.00;;;;;;;;;;5062564;28;20865;-74
2020/12/25 04:40:07;;;;;;;13.63;8.77;;;;;;;;;;5069835;28;20413;-74
2020/12/25 04:42:39;;;;;;;12.98;7.80;;;;;;;;;;5052660;28;20374;-74
2020/12/25 04:45:05;;;;;;;14.48;8.27;;;3.70;99.90;;;;;;5052676;28;20938;-74
2020/12/25 04:47:32;;;;;;;13.70;8.95;;;;;;;;;;5052603;28;20389;-74
2020/12/25 04:49:58;;;;;;;12.70;8.30;;;;;;;;;;5052478;28;20416;-74
2020/12/25 04:52:24;;;;;;;12.80;8.57;;;;;;;;;;5063296;28;20407;-74
2020/12/25 04:54:50;;;;;;;14.63;8.90;;;3.60;99.90;;;;;;5054769;28;20416;-74
2020/12/25 04:57:15;;;;;;;13.83;9.00;;;3.40;99.90;;;;;;5052413;28;20392;-74
2020/12/25 04:59:41;;;;;;;14.20;9.03;;;;;;;;;;5052317;28;20377;-74
2020/12/25 05:02:07;;;;;;;15.95;8.98;;;;;;;;;;5052270;28;20385;-74
2020/12/25 05:04:33;;;;;;;16.02;9.43;;;;;;;;;;5052272;28;20435;-74
2020/12/25 05:07:01;;;;;;;15.73;9.27;;;3.50;99.90;;;;;;5052180;28;20389;-74
2020/12/25 05:09:27;;;;;;;15.00;8.93;;;;;;;;;;5052220;28;20407;-75
2020/12/25 05:11:54;;;;;;;14.70;9.20;;;;;;;;;;5052187;28;20377;-75
2020/12/25 05:14:24;;;;;;;15.43;9.00;;;;;;;;;;5051764;28;20481;-75
2020/12/25 05:16:53;;;;;;;14.80;9.38;;;3.50;99.90;;;;;;5052041;28;20389;-75
2020/12/25 05:19:20;;;;;;;14.48;9.82;;;;;;;;;;5051998;28;20491;-75
2020/12/25 05:21:48;;;;;;;17.73;9.70;;;3.60;99.90;;;;;;5052178;28;20390;-74
2020/12/25 05:24:14;;;;;;;14.90;9.50;;;;;;;;;;5051901;28;20453;-75
2020/12/25 05:26:40;;;;;;;14.95;10.15;;;;;;;;;;5052015;28;21068;-74
2020/12/25 05:29:06;;;;;;;16.42;10.13;;;;;;;;;;5051270;28;20476;-73
2020/12/25 05:31:32;;;;;;;13.90;9.13;;;;;;;;;;5052210;28;20404;-74
2020/12/25 05:33:58;;;;;;;16.67;10.15;;;;;;;;;;5051716;28;20479;-73
2020/12/25 05:36:29;;;;;;;17.33;10.45;;;3.50;99.90;;;;;;5052094;28;20393;-74
2020/12/25 05:38:55;;;;;;;13.10;10.00;;;;;;;;;;5051586;28;20429;-73
2020/12/25 05:41:22;;;;;;;16.23;10.23;;;3.30;99.90;;;;;;5052069;28;20374;-73
2020/12/25 05:43:50;;;;;;;15.07;9.55;;;;;;;;;;5038154;28;20435;-72
2020/12/25 05:46:16;;;;;;;13.17;9.67;;;;;;;;;;5051818;28;20385;-74
2020/12/25 05:48:48;;;;;;;14.40;9.70;;;3.40;99.90;;;;;;5071717;28;20379;-73
2020/12/25 05:51:13;;;;;;;12.63;9.70;;;3.60;99.90;;;;;;5071844;28;20454;-74
2020/12/25 05:53:42;;;;;;;14.93;10.10;;;;;;;;;;5071206;28;20924;-74
2020/12/25 05:56:08;;;;;;;15.98;10.13;;;;;;;;;;5057044;28;20435;-74
2020/12/25 05:58:34;;;;;;;13.10;10.07;;;;;;;;;;5051545;28;20811;-73
2020/12/25 06:01:01;;;;;;;14.63;9.82;;;3.50;99.90;;;;;;5051127;28;20994;-75
2020/12/25 06:03:27;;;;;;;15.15;9.82;;;;;;;;;;5050955;28;20381;-75
2020/12/25 06:05:59;;;;;;;15.18;10.30;;;3.60;99.90;;;;;;5052131;28;20894;-75
2020/12/25 06:08:56;;;;;;;16.63;10.35;;;3.50;99.90;;;;;;5062452;28;20457;-75
2020/12/25 06:11:23;;;;;;;15.02;10.02;;;;;;;;;;5051166;28;20465;-75
2020/12/25 06:13:51;;;;;;;14.75;10.30;;;3.50;99.90;;;;;;5050560;28;20502;-75
2020/12/25 06:16:21;;;;;;;15.50;10.52;;;;;;;;;;5051082;28;20441;-74
2020/12/25 06:18:51;;;;;;;16.75;10.52;;;;;;;;;;5050931;28;20496;-74
2020/12/25 06:21:33;;;;;;;15.80;10.13;;;3.20;99.90;;;;;;5051086;28;20501;-74
2020/12/25 06:24:00;;;;;;;17.33;11.23;;;3.40;99.90;;;;;;5050621;28;20442;-74
2020/12/25 06:26:27;;;;;;;17.27;11.07;;;3.40;99.90;;;;;;5050744;28;20417;-73
2020/12/25 06:28:53;;;;;;;13.73;10.38;;;;;;;;;;5050770;28;20404;-74
2020/12/25 06:31:37;;;;;;;13.98;10.35;;;;;;;;;;5050788;28;20824;-74
2020/12/25 06:34:04;;;;;;;15.70;10.47;;;;;;;;;;5048879;28;20405;-74
2020/12/25 06:36:31;;;;;;;16.20;10.10;;;;;;;;;;5049588;28;20795;-72
2020/12/25 06:39:04;;;;;;;17.17;10.35;;;3.50;99.90;;;;;;5050607;28;20435;-74
2020/12/25 06:41:30;;;;;;;15.48;10.10;;;;;;;;;;5050464;28;20425;-73
2020/12/25 06:43:56;;;;;;;15.23;10.27;;;;;;;;;;5050514;28;20458;-72
2020/12/25 06:46:34;;;;;;;17.70;10.73;;;3.90;99.90;;;;;;5050472;28;20392;-73
2020/12/25 06:49:03;;;;;;;15.88;10.30;;;3.50;99.90;;;;;;5050448;28;20903;-73
2020/12/25 06:51:29;;;;;;;18.48;11.55;;;;;;;;;;5050528;28;20437;-75
2020/12/25 06:53:58;;;;;;;17.53;11.10;;;;;;;;;;5050289;28;20499;-74
2020/12/25 06:56:24;;;;;;;20.42;11.77;;;;;;;;;;5050373;28;20505;-73
2020/12/25 06:58:53;;;;;;;15.53;11.00;;;3.70;99.90;;;;;;5050519;28;20456;-74
2020/12/25 07:01:40;;;;;;;18.30;11.67;;;3.30;99.90;;;;;;5050089;28;20521;-73
2020/12/25 07:04:06;;;;;;;20.23;13.95;;;;;;;;;;5050070;28;20511;-74
2020/12/25 07:06:33;;;;;;;17.83;13.57;;;;;;;;;;5050327;28;20381;-74
2020/12/25 07:09:10;;;;;;;18.02;11.95;;;3.30;99.90;;;;;;5050196;28;20405;-75
2020/12/25 07:11:36;;;;;;;17.33;11.48;;;3.40;99.90;;;;;;5050329;28;20995;-74
2020/12/25 07:14:02;;;;;;;15.32;11.10;;;;;;;;;;5049850;28;20420;-74
2020/12/25 07:16:27;;;;;;;16.17;11.00;;;3.50;99.90;;;;;;5050234;28;20763;-75
2020/12/25 07:18:53;;;;;;;16.80;11.07;;;3.70;99.90;;;;;;5050290;28;20432;-75
2020/12/25 07:21:19;;;;;;;17.10;11.63;;;;;;;;;;5049916;28;20464;-75
2020/12/25 07:23:45;;;;;;;16.00;11.15;;;3.40;99.90;;;;;;5049153;28;20413;-75
2020/12/25 07:26:12;;;;;;;18.92;11.57;;;3.40;99.90;;;;;;5057910;28;20395;-75
2020/12/25 07:28:38;;;;;;;16.48;11.07;;;;;;;;;;5069854;28;20383;-74
2020/12/25 07:31:04;;;;;;;15.23;10.63;;;3.50;99.90;;;;;;5070028;28;20474;-75
2020/12/25 07:33:29;;;;;;;16.40;10.27;;;3.60;99.90;;;;;;5069460;28;20761;-75
2020/12/25 07:35:55;;;;;;;14.70;10.30;;;3.30;99.90;;;;;;5060418;28;20401;-74
2020/12/25 07:38:20;;;;;;;14.77;10.83;;;3.20;99.90;;;;;;5051460;28;20886;-75
2020/12/25 07:40:46;;;;;;;15.97;11.07;;;3.30;99.90;;;;;;5063736;28;20873;-75
2020/12/25 07:43:13;;;;;;;16.80;10.68;;;3.30;99.90;;;;;;5049458;28;20385;-75
2020/12/25 07:45:40;;;;;;;16.60;10.98;;;4.00;99.90;;;;;;5049679;28;20725;-75
2020/12/25 07:48:07;;;;;;;17.88;14.55;;;3.30;99.90;;;;;;5049567;28;20382;-74
2020/12/25 07:50:44;;;;;;;12.52;9.32;;;3.20;99.90;;;;;;5049873;28;20427;-75
2020/12/25 07:53:11;;;;;;;12.53;9.40;;;;;;;;;;5053169;28;20403;-75
2020/12/25 07:55:37;;;;;;;13.23;9.45;;;;;;;;;;5053420;28;20388;-75
2020/12/25 07:58:04;;;;;;;10.35;8.63;;;;;;;;;;5053230;28;20377;-75
2020/12/25 08:00:30;;;;;;;10.60;8.45;;;;;;;;;;5053251;28;20887;-75
2020/12/25 08:02:57;;;;;;;11.40;8.63;;;;;;;;;;5053138;28;20389;-74
2020/12/25 08:05:26;;;;;;;10.38;8.57;;;;;;;;;;5053274;28;20381;-74
2020/12/25 08:07:52;;;;;;;12.52;8.90;;;;;;;;;;5052977;28;20389;-75
2020/12/25 08:10:18;;;;;;;9.25;7.70;;;;;;;;;;5053159;28;20412;-75
2020/12/25 08:12:48;;;;;;;11.52;8.23;;;1.60;99.90;;;;;;5052839;28;20457;-74
2020/12/25 08:15:15;;;;;;;9.23;7.85;;;;;;;;;;5052782;28;20413;-75
2020/12/25 08:17:42;;;;;;;9.88;8.15;;;;;;;;;;5052824;28;20381;-74
2020/12/25 08:20:08;;;;;;;9.52;7.82;;;;;;;;;;5052959;28;20872;-75
2020/12/25 08:22:37;;;;;;;13.20;10.60;;;;;;;;;;5052561;28;20471;-75
2020/12/25 08:25:03;;;;;;;10.40;8.32;;;;;;;;;;5052840;28;20951;-75
2020/12/25 08:27:32;;;;;;;10.50;8.30;;;;;;;;;;5052698;28;20381;-75
2020/12/25 08:30:00;;;;;;;11.35;8.77;;;;;;;;;;5052732;28;20441;-75
2020/12/25 08:32:25;;;;;;;11.65;8.48;;;3.10;99.90;;;;;;5052473;28;20514;-74
2020/12/25 08:35:07;;;;;;;8.97;7.07;;;;;;;;;;5052505;28;20492;-75
2020/12/25 08:37:33;;;;;;;9.02;6.93;;;;;;;;;;5041198;28;20517;-75
2020/12/25 08:40:12;;;;;;;8.05;6.70;;;3.00;99.90;;;;;;5052479;28;20456;-75
2020/12/25 08:42:38;;;;;;;8.65;6.88;;;3.00;99.90;;;;;;5052288;28;20522;-75
2020/12/25 08:45:03;;;;;;;9.15;7.32;;;2.80;99.90;;;;;;5052366;28;20473;-75
2020/12/25 08:47:29;;;;;;;8.20;6.73;;;;;;;;;;5052167;28;20386;-75
2020/12/25 08:49:55;;;;;;;7.50;6.45;;;;;;;;;;5052315;28;20385;-75
2020/12/25 08:52:22;;;;;;;8.40;6.70;;;3.20;99.90;;;;;;5052100;28;20432;-75
2020/12/25 08:54:55;;;;;;;8.88;7.03;;;3.30;99.90;;;;;;5052259;28;20503;-75
2020/12/25 08:57:21;;;;;;;8.55;6.80;;;;;;;;;;5052139;28;20444;-75
2020/12/25 08:59:47;;;;;;;7.45;6.22;;;;;;;;;;5052209;28;20757;-75
2020/12/25 09:02:16;;;;;;;7.38;5.82;;;;;;;;;;5051022;28;20411;-75
2020/12/25 09:04:42;;;;;;;7.38;5.75;;;;;;;;;;5051895;28;20418;-75
2020/12/25 09:07:08;;;;;;;6.78;5.85;;;;;;;;;;5052028;28;20388;-74
2020/12/25 09:09:34;;;;;;;7.43;5.60;;;;;;;;;;5051935;28;20385;-74
2020/12/25 09:12:00;;;;;;;7.57;5.60;;;;;;;;;;5051849;28;20381;-74
2020/12/25 09:14:26;;;;;;;7.72;5.85;;;;;;;;;;5051493;28;20911;-74
2020/12/25 09:16:52;;;;;;;8.18;5.70;;;;;;;;;;5051795;28;20465;-74
2020/12/25 09:19:18;;;;;;;5.93;4.95;;;;;;;;;;5051618;28;20431;-75
2020/12/25 09:21:44;;;;;;;6.40;5.38;;;;;;;;;;5051766;28;20378;-75
2020/12/25 09:24:10;;;;;;;8.27;5.78;;;2.70;99.90;;;;;;5050953;28;20492;-75
2020/12/25 09:26:36;;;;;;;6.37;5.33;;;3.50;99.90;;;;;;5063584;28;20463;-74
2020/12/25 09:29:02;;;;;;;6.20;5.37;;;;;;;;;;5071408;28;20774;-74
2020/12/25 09:31:28;;;;;;;7.13;5.33;;;;;;;;;;5071649;28;20361;-75
2020/12/25 09:33:54;;;;;;;8.02;5.95;;;;;;;;;;5071280;28;20904;-74
2020/12/25 09:36:19;;;;;;;8.40;5.95;;;3.40;99.90;;;;;;5058607;28;20428;-75
2020/12/25 09:38:45;;;;;;;8.03;6.17;;;3.50;99.90;;;;;;5051520;28;20397;-75
2020/12/25 09:41:13;;;;;;;7.50;6.13;;;3.70;99.90;;;;;;5051384;28;20382;-75
2020/12/25 09:43:40;;;;;;;8.60;6.03;;;3.40;99.90;;;;;;5050858;28;20430;-75
2020/12/25 09:46:06;;;;;;;5.80;5.20;;;;;;;;;;5051364;28;20381;-75
2020/12/25 09:48:31;;;;;;;7.03;5.23;;;3.80;99.90;;;;;;5051190;28;20377;-72
2020/12/25 09:50:57;;;;;;;7.77;5.60;;;3.70;99.90;;;;;;5051232;28;20389;-75
2020/12/25 09:53:23;;;;;;;6.15;5.07;;;;;;;;;;5050785;28;20405;-75
2020/12/25 09:55:50;;;;;;;7.25;5.25;;;3.80;99.90;;;;;;5051178;28;20388;-74
2020/12/25 09:58:16;;;;;;;5.85;4.78;;;;;;;;;;5050898;28;20764;-74
2020/12/25 10:00:42;;;;;;;4.60;4.10;;;4.00;99.90;;;;;;5051038;28;20378;-74
2020/12/25 10:03:07;;;;;;;4.57;3.83;;;3.70;99.90;;;;;;5050957;28;20386;-74
2020/12/25 10:05:33;;;;;;;5.43;4.03;;;;;;;;;;5050967;28;20382;-74
2020/12/25 10:07:59;;;;;;;6.18;4.07;;;;;;;;;;5050757;28;20480;-74
2020/12/25 10:10:25;;;;;;;5.97;3.80;;;;;;;;;;5050833;28;20760;-74
2020/12/25 10:12:52;;;;;;;6.25;4.13;;;;;;;;;;5050404;28;20373;-74
2020/12/25 10:15:18;;;;;;;6.88;4.07;;;3.60;99.90;;;;;;5050365;28;20413;-74
2020/12/25 10:17:44;;;;;;;5.88;4.15;;;4.00;99.90;;;;;;5050617;28;20381;-75
2020/12/25 10:20:10;;;;;;;3.83;2.95;;;3.50;99.90;;;;;;5050657;28;20896;-72
2020/12/25 10:22:36;;;;;;;4.05;2.78;;;;;;;;;;5050480;28;20389;-74
2020/12/25 10:25:02;;;;;;;4.47;3.00;;;;;;;;;;5050550;28;20417;-74
2020/12/25 10:27:28;;;;;;;5.07;3.13;;;;;;;;;;5050268;28;20385;-74
2020/12/25 10:29:54;;;;;;;5.32;2.80;;;;;;;;;;5050555;28;20389;-74
2020/12/25 10:32:20;;;;;;;3.67;2.70;;;;;;;;;;5050370;28;20386;-74
2020/12/25 10:34:46;;;;;;;4.60;2.80;;;;;;;;;;5050383;28;20409;-74
2020/12/25 10:37:12;;;;;;;3.67;2.95;;;;;;;;;;5050191;28;20450;-74
2020/12/25 10:39:38;;;;;;;5.03;2.70;;;;;;;;;;5050342;28;20377;-74
2020/12/25 10:42:08;;;;;;;3.45;2.55;;;;;;;;;;5049962;28;20385;-74
2020/12/25 10:44:34;;;;;;;5.93;3.13;;;;;;;;;;5050226;28;20471;-74
2020/12/25 10:47:00;;;;;;;4.00;2.50;;;;;;;;;;5050132;28;20456;-74
2020/12/25 10:49:26;;;;;;;3.50;2.20;;;;;;;;;;5050180;28;20539;-74
2020/12/25 10:51:52;;;;;;;3.47;2.40;;;;;;;;;;5050168;28;20385;-74
2020/12/25 10:54:18;;;;;;;3.40;2.50;;;;;;;;;;5049848;28;20409;-74
2020/12/25 10:56:44;;;;;;;5.47;2.43;;;;;;;;;;5049943;28;20378;-74
2020/12/25 10:59:10;;;;;;;2.80;2.10;;;;;;;;;;5050183;28;21000;-74
2020/12/25 11:01:36;;;;;;;2.92;2.10;;;;;;;;;;5050021;28;20385;-74
2020/12/25 11:04:02;;;;;;;2.53;1.90;;;;;;;;;;5049970;28;20384;-74
2020/12/25 11:06:37;;;;;;;3.40;1.75;;;3.80;99.90;;;;;;5049874;28;20409;-74
2020/12/25 11:09:06;;;;;;;4.80;1.80;;;;;;;;;;5050002;28;20903;-74
2020/12/25 11:11:34;;;;;;;2.77;1.90;;;3.80;99.90;;;;;;5049917;28;20438;-74
2020/12/25 11:14:00;;;;;;;2.88;1.70;;;3.90;99.90;;;;;;5049549;28;20449;-74
2020/12/25 11:16:28;;;;;;;2.63;1.60;;;3.70;99.90;;;;;;5049898;28;20381;-74
2020/12/25 11:18:54;;;;;;;3.08;1.73;;;4.00;99.90;;;;;;5049935;28;20442;-74
2020/12/25 11:21:25;;;;;;;3.38;2.30;;;4.00;99.90;;;;;;5050009;28;20399;-74
2020/12/25 11:23:51;;;;;;;4.53;2.00;;;;;;;;;;5049562;28;20820;-74
2020/12/25 11:26:21;;;;;;;4.47;3.25;;;;;;;;;;5049821;28;20472;-74
2020/12/25 11:28:47;;;;;;;8.70;6.30;;;;;;;;;;5053825;28;20389;-74
2020/12/25 11:31:13;;;;;;;6.05;3.80;;;;;;;;;;5053874;28;20386;-74
2020/12/25 11:33:39;;;;;;;3.08;1.83;;;3.30;99.90;;;;;;5053448;28;20448;-74
2020/12/25 11:36:06;;;;;;;2.40;1.88;;;3.40;99.90;;;;;;5053601;28;20409;-74
2020/12/25 11:38:31;;;;;;;2.42;1.77;;;3.00;99.90;;;;;;5053529;28;20393;-74
2020/12/25 11:40:57;;;;;;;3.47;1.95;;;;;;;;;;5053560;28;20396;-74
2020/12/25 11:43:23;;;;;;;2.90;1.58;;;;;;;;;;5053331;28;20389;-74
2020/12/25 11:45:49;;;;;;;2.67;1.60;;;;;;;;;;5053639;28;20473;-74
2020/12/25 11:48:15;;;;;;;4.63;2.10;;;;;;;;;;5053454;28;20386;-74
2020/12/25 11:50:41;;;;;;;4.28;1.80;;;;;;;;;;5053452;28;20377;-74
2020/12/25 11:53:07;;;;;;;3.78;2.10;;;;;;;;;;5053096;28;20439;-74
2020/12/25 11:55:33;;;;;;;2.65;1.75;;;;;;;;;;5053349;28;20388;-74
2020/12/25 11:57:59;;;;;;;2.70;1.67;;;3.50;99.90;;;;;;5053319;28;20381;-74
2020/12/25 12:00:25;;;;;;;3.00;1.67;;;;;;;;;;5053280;28;20377;-74
2020/12/25 12:02:50;;;;;;;6.55;4.30;;;3.20;99.90;;;;;;5052983;28;20381;-74
2020/12/25 12:05:16;;;;;;;2.63;1.50;;;;;;;;;;5053180;28;20405;-74
2020/12/25 12:07:42;;;;;;;4.97;2.50;;;;;;;;;;5052993;28;20456;-74
2020/12/25 12:10:07;;;;;;;3.05;1.40;;;3.30;99.90;;;;;;5053066;28;20386;-74
2020/12/25 12:12:33;;;;;;;8.65;4.32;;;3.40;99.90;;;;;;5052771;28;20389;-73
2020/12/25 12:14:58;;;;;;;2.45;1.50;;;3.60;99.90;;;;;;5052841;28;20419;-73
2020/12/25 12:17:24;;;;;;;3.90;2.53;;;;;;;;;;5052763;28;20456;-74
2020/12/25 12:19:50;;;;;;;2.83;1.98;;;;;;;;;;5053024;28;20468;-74
2020/12/25 12:22:16;;;;;;;2.90;1.50;;;3.40;99.90;;;;;;5052599;28;20443;-74
2020/12/25 12:24:42;;;;;;;3.57;1.60;;;;;;;;;;5052817;28;20390;-74
2020/12/25 12:27:07;;;;;;;2.88;1.38;;;3.40;99.90;;;;;;5052640;28;20389;-74
2020/12/25 12:29:33;;;;;;;3.67;1.58;;;3.50;99.90;;;;;;5065971;28;20403;-74
2020/12/25 12:32:00;;;;;;;2.97;1.67;;;;;;;;;;5061603;28;20885;-74
2020/12/25 12:34:26;;;;;;;2.83;1.60;;;;;;;;;;5063662;28;20404;-74
2020/12/25 12:36:52;;;;;;;2.42;1.58;;;3.50;99.90;;;;;;5061887;28;20389;-74
2020/12/25 12:39:19;;;;;;;2.83;1.93;;;;;;;;;;5064318;28;20479;-74
2020/12/25 12:41:44;;;;;;;2.93;1.73;;;;;;;;;;5055988;28;20446;-74
2020/12/25 12:44:10;;;;;;;3.05;1.58;;;3.60;99.90;;;;;;5064007;28;20375;-74
2020/12/25 12:46:35;;;;;;;1.60;1.40;;;3.20;99.90;;;;;;5063654;28;20922;-74
2020/12/25 12:49:01;;;;;;;2.92;1.80;;;;;;;;;;5063847;28;20841;-74
2020/12/25 12:51:27;;;;;;;3.17;1.92;;;;;;;;;;5064476;28;20396;-74
2020/12/25 12:53:53;;;;;;;3.27;2.10;;;;;;;;;;5061730;28;20508;-74
2020/12/25 12:56:19;;;;;;;2.10;1.60;;;;;;;;;;5064119;28;20377;-74
2020/12/25 12:58:45;;;;;;;2.95;1.60;;;;;;;;;;5068233;28;20368;-74
2020/12/25 13:01:19;;;;;;;3.13;1.80;;;;;;;;;;5060139;28;20381;-74
2020/12/25 13:03:45;;;;;;;4.05;1.80;;;3.30;99.90;;;;;;5066659;28;20396;-74
2020/12/25 13:06:10;;;;;;;3.57;1.70;;;3.40;99.90;;;;;;5060126;28;20392;-74
2020/12/25 13:08:36;;;;;;;2.20;1.60;;;;;;;;;;5065239;28;20380;-74
2020/12/25 13:11:02;;;;;;;2.58;1.75;;;3.10;99.90;;;;;;5062838;28;20380;-74
2020/12/25 13:13:28;;;;;;;2.50;1.60;;;;;;;;;;5063202;28;20463;-72
2020/12/25 13:15:54;;;;;;;3.00;1.80;;;;;;;;;;5061617;28;20389;-74
2020/12/25 13:18:19;;;;;;;3.17;1.60;;;3.30;99.90;;;;;;5065690;28;20379;-75
2020/12/25 13:20:45;;;;;;;2.50;1.48;;;3.00;99.90;;;;;;5060497;28;20386;-74
2020/12/25 13:23:11;;;;;;;2.03;1.63;;;3.40;99.90;;;;;;5063089;28;20409;-72
2020/12/25 13:25:36;;;;;;;2.92;1.70;;;3.30;99.90;;;;;;5062982;28;20378;-74
2020/12/25 13:28:02;;;;;;;2.78;1.50;;;;;;;;;;5062752;28;20380;-75
2020/12/25 13:30:28;;;;;;;3.08;1.70;;;;;;;;;;5063176;28;20382;-74
2020/12/25 13:32:56;;;;;;;2.90;1.60;;;;;;;;;;5061097;28;20378;-75
2020/12/25 13:35:22;;;;;;;3.05;1.90;;;;;;;;;;5062771;28;20412;-74
2020/12/25 13:37:47;;;;;;;2.60;1.70;;;3.20;99.90;;;;;;5066252;28;20376;-74
2020/12/25 13:40:13;;;;;;;1.83;1.60;;;3.20;99.90;;;;;;5059435;28;20378;-74
2020/12/25 13:42:39;;;;;;;2.43;1.60;;;;;;;;;;5059796;28;20408;-74
2020/12/25 13:45:05;;;;;;;3.00;1.90;;;3.20;99.90;;;;;;5059839;28;20418;-74
2020/12/25 13:47:31;;;;;;;3.50;2.00;;;;;;;;;;5061676;28;20412;-74
2020/12/25 13:49:57;;;;;;;2.25;1.70;;;;;;;;;;5060432;28;20385;-74